Time;durP1;ratioP1;P1;durP2;ratioP2;P2;SDS_P1;SDS_P2;PMS_P1;PMS_P2;Temp;Humidity;BMP_temperature;BMP_pressure;BME280_temperature;BME280_humidity;BME280_pressure;Samples;Min_cycle;Max_cycle;Signal;HPM_P1;HPM_P2
2022/10/22 00:00:10;;;;;;;;;;;15.40;99.90;;;;;;5007016;28;19916;-69
2022/10/22 00:02:36;;;;;;;;;;;15.40;99.90;;;;;;5000892;28;19910;-67
2022/10/22 00:05:01;;;;;;;;;;;15.40;99.90;;;;;;4993404;28;20020;-68
2022/10/22 00:07:27;;;;;;;;;;;15.30;99.90;;;;;;4995916;28;20008;-69
2022/10/22 00:09:52;;;;;;;;;;;15.20;99.90;;;;;;4997422;28;19941;-69
2022/10/22 00:12:18;;;;;;;;;;;15.30;99.90;;;;;;4993650;28;19933;-68
2022/10/22 00:14:44;;;;;;;;;;;15.30;99.90;;;;;;4991807;28;19917;-68
2022/10/22 00:17:10;;;;;;;;;;;15.40;99.90;;;;;;4991505;28;19910;-69
2022/10/22 00:19:35;;;;;;;;;;;15.40;99.90;;;;;;4995468;28;19909;-70
2022/10/22 00:22:04;;;;;;;;;;;15.50;99.90;;;;;;4996572;28;19979;-69
2022/10/22 00:24:30;;;;;;;;;;;15.50;99.90;;;;;;4992439;28;19972;-69
2022/10/22 00:26:56;;;;;;;;;;;15.50;99.90;;;;;;4996596;28;19910;-69
2022/10/22 00:29:21;;;;;;;;;;;15.50;99.90;;;;;;4995334;28;19968;-70
2022/10/22 00:34:56;;;;;;;;;;;15.50;99.90;;;;;;4993773;28;19916;-65
2022/10/22 00:37:22;;;;;;;;;;;15.50;99.90;;;;;;4989504;28;19910;-68
2022/10/22 00:39:47;;;;;;;;;;;15.40;99.90;;;;;;4992684;28;20364;-69
2022/10/22 00:42:20;;;;;;;;;;;15.30;99.90;;;;;;4999990;28;19909;-69
2022/10/22 00:45:04;;;;;;;;;;;15.20;99.90;;;;;;4987412;28;19923;-70
2022/10/22 00:47:35;;;;;;;;;;;15.20;99.90;;;;;;4988123;28;19955;-69
2022/10/22 00:50:02;;;;;;;;;;;15.30;99.90;;;;;;5005876;28;19999;-69
2022/10/22 00:52:27;;;;;;;;;;;15.30;99.90;;;;;;5000010;28;19909;-68
2022/10/22 00:54:53;;;;;;;;;;;15.30;99.90;;;;;;4994465;28;19917;-68
2022/10/22 00:57:19;;;;;;;;;;;15.30;99.90;;;;;;4995593;28;19910;-70
2022/10/22 00:59:45;;;;;;;;;;;15.30;99.90;;;;;;4994320;28;19996;-68
2022/10/22 01:02:11;;;;;;;;;;;15.20;99.90;;;;;;5006339;28;19953;-71
2022/10/22 01:04:36;;;;;;;;;;;15.20;99.90;;;;;;4998675;28;20387;-69
2022/10/22 01:07:02;;;;;;;;;;;15.20;99.90;;;;;;4995589;28;19917;-69
2022/10/22 01:09:33;;;;;;;;;;;15.20;99.90;;;;;;4998402;28;20004;-70
2022/10/22 01:12:08;;;;;;;;;;;15.20;99.90;;;;;;4996968;28;20072;-71
2022/10/22 01:14:40;;;;;;;;;;;15.20;99.90;;;;;;4996480;28;19931;-71
2022/10/22 01:17:07;;;;;;;;;;;15.30;99.90;;;;;;4999599;28;19916;-70
2022/10/22 01:19:44;;;;;;;;;;;15.30;99.90;;;;;;5000521;28;19964;-71
2022/10/22 01:22:26;;;;;;;;;;;15.40;99.90;;;;;;4995820;28;19909;-67
2022/10/22 01:24:57;;;;;;;;;;;15.30;99.90;;;;;;5000178;28;19968;-68
2022/10/22 01:27:25;;;;;;;;;;;15.10;99.90;;;;;;5009670;28;19913;-68
2022/10/22 01:29:56;;;;;;;;;;;15.10;99.90;;;;;;5005292;28;19956;-68
2022/10/22 01:32:22;;;;;;;;;;;15.10;99.90;;;;;;5000335;28;19910;-68
2022/10/22 01:34:50;;;;;;;;;;;15.10;99.90;;;;;;5002213;28;19959;-68
2022/10/22 01:37:17;;;;;;;;;;;15.10;99.90;;;;;;4994393;28;20357;-69
2022/10/22 01:39:44;;;;;;;;;;;15.10;99.90;;;;;;5002900;28;19910;-68
2022/10/22 01:42:11;;;;;;;;;;;15.10;99.90;;;;;;5002123;28;19913;-67
2022/10/22 01:44:36;;;;;;;;;;;15.20;99.90;;;;;;5010142;28;19918;-66
2022/10/22 01:47:10;;;;;;;;;;;15.20;99.90;;;;;;5005649;28;19910;-66
2022/10/22 01:49:55;;;;;;;;;;;15.20;99.90;;;;;;5001908;28;19913;-67
2022/10/22 01:52:37;;;;;;;;;;;15.10;99.90;;;;;;4980491;28;20004;-66
2022/10/22 01:55:05;;;;;;;;;;;15.00;99.90;;;;;;4996327;28;20348;-68
2022/10/22 01:57:34;;;;;;;;;;;14.90;99.90;;;;;;5000006;28;20004;-68
2022/10/22 02:00:07;;;;;;;;;;;14.70;99.90;;;;;;5020664;28;19960;-68
2022/10/22 02:02:38;;;;;;;;;;;14.70;99.90;;;;;;4990468;28;19961;-68
2022/10/22 02:05:06;;;;;;;;;;;14.60;99.90;;;;;;4994545;28;20419;-68
2022/10/22 02:07:36;;;;;;;;;;;14.60;99.90;;;;;;4996488;28;19944;-69
2022/10/22 02:10:02;;;;;;;;;;;14.60;99.90;;;;;;4995119;28;19996;-69
2022/10/22 02:12:29;;;;;;;;;;;14.50;99.90;;;;;;4994981;28;20328;-69
2022/10/22 02:14:56;;;;;;;;;;;14.50;99.90;;;;;;4996242;28;19997;-70
2022/10/22 02:17:22;;;;;;;;;;;14.50;99.90;;;;;;5001027;28;19913;-70
2022/10/22 02:19:55;;;;;;;;;;;14.40;99.90;;;;;;4997100;28;19909;-70
2022/10/22 02:22:21;;;;;;;;;;;14.40;99.90;;;;;;4999591;28;20399;-70
2022/10/22 02:24:47;;;;;;;;;;;14.40;99.90;;;;;;4989562;28;19922;-70
2022/10/22 02:27:19;;;;;;;;;;;14.50;99.90;;;;;;5005630;28;19917;-71
2022/10/22 02:29:48;;;;;;;;;;;14.60;99.90;;;;;;4998473;28;19917;-70
2022/10/22 02:32:17;;;;;;;;;;;14.60;99.90;;;;;;5002389;28;19909;-71
2022/10/22 02:34:44;;;;;;;;;;;14.70;99.90;;;;;;4997518;28;19909;-70
2022/10/22 02:37:10;;;;;;;;;;;14.80;99.90;;;;;;4995326;28;19930;-69
2022/10/22 02:39:36;;;;;;;;;;;14.60;99.90;;;;;;5000191;28;19996;-70
2022/10/22 02:42:01;;;;;;;;;;;14.60;99.90;;;;;;4989960;28;19910;-70
2022/10/22 02:44:27;;;;;;;;;;;14.60;99.90;;;;;;4993301;28;19917;-70
2022/10/22 02:46:52;;;;;;;;;;;14.60;99.90;;;;;;5000192;28;19916;-69
2022/10/22 02:49:18;;;;;;;;;;;14.50;99.90;;;;;;4998263;28;19910;-70
2022/10/22 02:51:44;;;;;;;;;;;14.50;99.90;;;;;;4990810;28;19914;-70
2022/10/22 02:54:09;;;;;;;;;;;14.50;99.90;;;;;;4992486;28;19917;-70
2022/10/22 02:56:35;;;;;;;;;;;14.40;99.90;;;;;;4989957;28;19913;-70
2022/10/22 02:59:00;;;;;;;;;;;14.30;99.90;;;;;;5000418;28;20289;-70
2022/10/22 03:01:26;;;;;;;;;;;14.30;99.90;;;;;;4993519;28;20388;-71
2022/10/22 03:03:51;;;;;;;;;;;14.20;99.90;;;;;;4996928;28;19921;-70
2022/10/22 03:06:17;;;;;;;;;;;14.20;99.90;;;;;;5003943;28;19913;-70
2022/10/22 03:08:42;;;;;;;;;;;14.20;99.90;;;;;;4995531;28;19914;-70
2022/10/22 03:11:08;;;;;;;;;;;14.10;99.90;;;;;;4997725;28;20004;-70
2022/10/22 03:13:33;;;;;;;;;;;14.10;99.90;;;;;;4992917;28;19910;-71
2022/10/22 03:15:59;;;;;;;;;;;14.00;99.90;;;;;;4994233;28;20000;-70
2022/10/22 03:18:24;;;;;;;;;;;14.00;99.90;;;;;;5001694;28;20287;-71
2022/10/22 03:20:58;;;;;;;;;;;13.90;99.90;;;;;;4996488;28;19918;-71
2022/10/22 03:23:24;;;;;;;;;;;13.90;99.90;;;;;;4993505;28;19914;-71
2022/10/22 03:25:49;;;;;;;;;;;13.80;99.90;;;;;;4995245;28;19948;-71
2022/10/22 03:28:16;;;;;;;;;;;13.70;99.90;;;;;;5006226;28;20369;-72
2022/10/22 03:30:41;;;;;;;;;;;13.70;99.90;;;;;;4996730;28;20044;-72
2022/10/22 03:33:07;;;;;;;;;;;13.60;99.90;;;;;;5007002;28;20004;-72
2022/10/22 03:35:36;;;;;;;;;;;13.70;99.90;;;;;;4997563;28;19920;-72
2022/10/22 03:38:02;;;;;;;;;;;13.60;99.90;;;;;;4991065;28;20357;-72
2022/10/22 03:40:27;;;;;;;;;;;13.60;99.90;;;;;;5003383;28;19909;-71
2022/10/22 03:42:53;;;;;;;;;;;13.60;99.90;;;;;;4998120;28;19916;-71
2022/10/22 03:45:19;;;;;;;;;;;13.60;99.90;;;;;;5002831;28;20017;-71
2022/10/22 03:47:44;;;;;;;;;;;13.40;99.90;;;;;;4998454;28;20435;-71
2022/10/22 03:50:10;;;;;;;;;;;13.60;99.90;;;;;;4995431;28;20277;-71
2022/10/22 03:52:36;;;;;;;;;;;13.60;99.90;;;;;;4999793;28;19913;-71
2022/10/22 03:55:02;;;;;;;;;;;13.50;99.90;;;;;;4995960;28;20277;-71
2022/10/22 03:57:27;;;;;;;;;;;13.50;99.90;;;;;;4999968;28;20000;-70
2022/10/22 03:59:53;;;;;;;;;;;13.50;99.90;;;;;;4998931;28;20361;-71
2022/10/22 04:02:19;;;;;;;;;;;13.50;99.90;;;;;;5002825;28;19921;-72
2022/10/22 04:04:44;;;;;;;;;;;13.00;99.90;;;;;;5001841;28;19921;-71
2022/10/22 04:07:10;;;;;;;;;;;13.30;99.90;;;;;;4996636;28;20266;-72
2022/10/22 04:09:35;;;;;;;;;;;13.30;99.90;;;;;;5002412;28;19913;-70
2022/10/22 04:12:01;;;;;;;;;;;13.40;99.90;;;;;;4992037;28;19910;-71
2022/10/22 04:14:27;;;;;;;;;;;;;;;;;;4993300;28;19916;-71
2022/10/22 04:16:53;;;;;;;;;;;;;;;;;;4998102;28;20012;-71
2022/10/22 04:19:19;;;;;;;;;;;;;;;;;;4996251;28;19931;-71
2022/10/22 04:21:44;;;;;;;;;;;13.40;99.90;;;;;;4996811;28;19909;-70
2022/10/22 04:24:10;;;;;;;;;;;;;;;;;;5001402;28;19917;-71
2022/10/22 04:26:36;;;;;;;;;;;13.40;99.90;;;;;;5006140;28;19960;-72
2022/10/22 04:29:01;;;;;;;;;;;13.30;99.90;;;;;;5001615;28;20427;-71
2022/10/22 04:31:27;;;;;;;;;;;13.20;99.90;;;;;;5000564;28;19933;-71
2022/10/22 04:33:56;;;;;;;;;;;13.10;99.90;;;;;;5002391;28;20008;-71
2022/10/22 04:36:22;;;;;;;;;;;13.30;99.90;;;;;;5007415;28;19916;-71
2022/10/22 04:38:51;;;;;;;;;;;13.30;99.90;;;;;;5001972;28;19910;-71
2022/10/22 04:41:18;;;;;;;;;;;13.30;99.90;;;;;;5000451;28;19945;-71
2022/10/22 04:43:44;;;;;;;;;;;13.40;99.90;;;;;;5001922;28;19917;-71
2022/10/22 04:46:10;;;;;;;;;;;13.30;99.90;;;;;;4998685;28;19910;-70
2022/10/22 04:48:36;;;;;;;;;;;13.40;99.90;;;;;;5008403;28;20001;-70
2022/10/22 04:51:02;;;;;;;;;;;13.40;99.90;;;;;;5001269;28;19956;-70
2022/10/22 04:53:27;;;;;;;;;;;13.40;99.90;;;;;;5000772;28;20425;-70
2022/10/22 04:55:53;;;;;;;;;;;13.40;99.90;;;;;;4995850;28;19996;-70
2022/10/22 04:58:19;;;;;;;;;;;13.40;99.90;;;;;;4995812;28;19909;-71
2022/10/22 05:00:44;;;;;;;;;;;14.60;99.90;;;;;;4995282;28;19917;-71
2022/10/22 05:03:10;;;;;;;;;;;13.60;99.90;;;;;;4994014;28;20345;-71
2022/10/22 05:05:35;;;;;;;;;;;13.70;99.90;;;;;;4990496;28;19918;-71
2022/10/22 05:08:01;;;;;;;;;;;13.70;99.90;;;;;;5000316;28;20015;-71
2022/10/22 05:10:26;;;;;;;;;;;13.60;99.90;;;;;;4994088;28;19920;-70
2022/10/22 05:12:52;;;;;;;;;;;13.70;99.90;;;;;;4997480;28;19920;-70
2022/10/22 05:15:17;;;;;;;;;;;13.60;99.90;;;;;;4992219;28;19910;-71
2022/10/22 05:17:43;;;;;;;;;;;13.60;99.90;;;;;;4990515;28;19952;-70
2022/10/22 05:20:09;;;;;;;;;;;13.80;99.90;;;;;;4996866;28;19921;-71
2022/10/22 05:22:34;;;;;;;;;;;13.70;99.90;;;;;;4988649;28;19909;-70
2022/10/22 05:25:00;;;;;;;;;;;13.60;99.90;;;;;;5000953;28;19925;-70
2022/10/22 05:27:25;;;;;;;;;;;13.50;99.90;;;;;;4985151;28;19964;-70
2022/10/22 05:29:51;;;;;;;;;;;13.40;99.90;;;;;;4993229;28;20460;-71
2022/10/22 05:32:17;;;;;;;;;;;13.40;99.90;;;;;;4992979;28;19910;-71
2022/10/22 05:34:42;;;;;;;;;;;13.40;99.90;;;;;;4989324;28;19909;-70
2022/10/22 05:37:08;;;;;;;;;;;13.30;99.90;;;;;;4993266;28;19960;-70
2022/10/22 05:39:35;;;;;;;;;;;13.10;99.90;;;;;;4990632;28;19969;-70
2022/10/22 05:42:01;;;;;;;;;;;13.10;99.90;;;;;;4992615;28;19917;-70
2022/10/22 05:44:27;;;;;;;;;;;13.00;99.90;;;;;;4994146;28;19917;-70
2022/10/22 05:46:52;;;;;;;;;;;12.90;99.90;;;;;;4997359;28;20376;-70
2022/10/22 05:49:18;;;;;;;;;;;12.80;99.90;;;;;;4998378;28;19956;-71
2022/10/22 05:51:44;;;;;;;;;;;12.80;99.90;;;;;;4993418;28;19988;-71
2022/10/22 05:54:16;;;;;;;;;;;12.80;99.90;;;;;;4992782;28;19917;-70
2022/10/22 05:56:42;;;;;;;;;;;12.80;99.90;;;;;;4994393;28;19996;-70
2022/10/22 05:59:09;;;;;;;;;;;12.80;99.90;;;;;;4997251;28;19941;-70
2022/10/22 06:01:34;;;;;;;;;;;12.90;99.90;;;;;;4995122;28;19914;-70
2022/10/22 06:04:01;;;;;;;;;;;12.80;99.90;;;;;;4994482;28;19944;-70
2022/10/22 06:06:29;;;;;;;;;;;12.80;99.90;;;;;;4994286;28;19957;-70
2022/10/22 06:08:55;;;;;;;;;;;12.90;99.90;;;;;;4995452;28;19910;-70
2022/10/22 06:11:21;;;;;;;;;;;12.80;99.90;;;;;;4992448;28;20369;-71
2022/10/22 06:13:46;;;;;;;;;;;12.80;99.90;;;;;;4996774;28;19910;-71
2022/10/22 06:16:12;;;;;;;;;;;12.80;99.90;;;;;;4994665;28;20391;-70
2022/10/22 06:18:38;;;;;;;;;;;12.60;99.90;;;;;;4994228;28;20396;-70
2022/10/22 06:21:08;;;;;;;;;;;12.50;99.90;;;;;;4996274;28;19949;-71
2022/10/22 06:23:33;;;;;;;;;;;12.60;99.90;;;;;;4989582;28;20423;-70
2022/10/22 06:25:59;;;;;;;;;;;12.60;99.90;;;;;;4993873;28;19917;-70
2022/10/22 06:28:25;;;;;;;;;;;12.60;99.90;;;;;;4986792;28;19996;-68
2022/10/22 06:30:50;;;;;;;;;;;12.70;99.90;;;;;;5001525;28;20373;-68
2022/10/22 06:33:16;;;;;;;;;;;12.70;99.90;;;;;;4992477;28;20424;-69
2022/10/22 06:35:41;;;;;;;;;;;12.80;99.90;;;;;;4993567;28;19921;-69
2022/10/22 06:38:07;;;;;;;;;;;12.90;99.90;;;;;;4994862;28;19910;-70
2022/10/22 06:40:32;;;;;;;;;;;13.10;99.90;;;;;;4997203;28;19914;-71
2022/10/22 06:42:59;;;;;;;;;;;13.20;99.90;;;;;;5000459;28;19952;-71
2022/10/22 06:45:24;;;;;;;;;;;13.20;99.90;;;;;;4988796;28;20250;-70
2022/10/22 06:47:50;;;;;;;;;;;13.30;99.90;;;;;;4997552;28;19916;-70
2022/10/22 06:50:15;;;;;;;;;;;13.40;99.90;;;;;;4994232;28;20001;-70
2022/10/22 06:52:41;;;;;;;;;;;13.50;99.90;;;;;;4990834;28;19918;-71
2022/10/22 06:55:07;;;;;;;;;;;13.70;99.90;;;;;;4993718;28;20324;-70
2022/10/22 06:57:32;;;;;;;;;;;13.80;99.90;;;;;;4988366;28;19920;-69
2022/10/22 06:59:58;;;;;;;;;;;14.00;99.90;;;;;;4995037;28;20456;-70
2022/10/22 07:02:23;;;;;;;;;;;14.10;99.90;;;;;;4993045;28;19909;-71
2022/10/22 07:04:49;;;;;;;;;;;14.20;99.90;;;;;;4998430;28;19922;-70
2022/10/22 07:07:14;;;;;;;;;;;14.20;99.90;;;;;;4991140;28;19944;-73
2022/10/22 07:09:40;;;;;;;;;;;14.30;99.90;;;;;;4988263;28;19956;-72
2022/10/22 07:12:05;;;;;;;;;;;14.50;99.90;;;;;;4993737;28;20000;-72
2022/10/22 07:14:31;;;;;;;;;;;14.70;99.90;;;;;;4990458;28;19918;-73
2022/10/22 07:16:56;;;;;;;;;;;14.90;99.90;;;;;;4983699;28;19909;-71
2022/10/22 07:19:22;;;;;;;;;;;15.00;99.90;;;;;;4991743;28;19910;-70
2022/10/22 07:21:47;;;;;;;;;;;15.10;99.90;;;;;;4990866;28;20262;-70
2022/10/22 07:24:13;;;;;;;;;;;15.10;99.90;;;;;;4997770;28;19947;-72
2022/10/22 07:26:38;;;;;;;;;;;15.20;99.90;;;;;;4992565;28;19917;-71
2022/10/22 07:29:04;;;;;;;;;;;15.20;99.90;;;;;;4996917;28;19913;-71
2022/10/22 07:31:30;;;;;;;;;;;15.20;99.90;;;;;;4990281;28;19992;-71
2022/10/22 07:33:56;;;;;;;;;;;15.10;99.90;;;;;;4998398;28;19910;-71
2022/10/22 07:36:22;;;;;;;;;;;15.20;99.90;;;;;;4992739;28;19914;-69
2022/10/22 07:38:48;;;;;;;;;;;15.30;99.90;;;;;;4993758;28;19910;-71
2022/10/22 07:41:16;;;;;;;;;;;15.40;99.90;;;;;;4992278;28;19916;-70
2022/10/22 07:43:42;;;;;;;;;;;15.40;99.90;;;;;;4989869;28;19920;-72
2022/10/22 07:46:08;;;;;;;;;;;15.50;99.90;;;;;;4993675;28;19913;-72
2022/10/22 07:48:34;;;;;;;;;;;15.50;99.90;;;;;;5003700;28;19959;-72
2022/10/22 07:51:00;;;;;;;;;;;15.50;99.90;;;;;;4991111;28;19909;-71
2022/10/22 07:53:25;;;;;;;;;;;15.50;99.90;;;;;;4993402;28;19980;-72
2022/10/22 07:55:51;;;;;;;;;;;15.60;99.90;;;;;;5000818;28;19917;-62
2022/10/22 07:58:18;;;;;;;;;;;15.60;99.90;;;;;;4992368;28;19914;-72
2022/10/22 08:00:44;;;;;;;;;;;15.70;99.90;;;;;;4999840;28;19933;-70
2022/10/22 08:03:10;;;;;;;;;;;15.60;99.90;;;;;;4993853;28;20365;-72
2022/10/22 08:05:36;;;;;;;;;;;15.70;99.90;;;;;;4987362;28;20066;-71
2022/10/22 08:08:01;;;;;;;;;;;15.60;99.90;;;;;;4998176;28;20397;-69
2022/10/22 08:10:27;;;;;;;;;;;15.40;99.90;;;;;;4992312;28;20043;-71
2022/10/22 08:12:52;;;;;;;;;;;15.40;99.90;;;;;;4995279;28;20008;-71
2022/10/22 08:15:18;;;;;;;;;;;15.40;99.90;;;;;;4991919;28;19909;-71
2022/10/22 08:17:43;;;;;;;;;;;15.30;99.90;;;;;;4998267;28;19932;-70
2022/10/22 08:20:09;;;;;;;;;;;15.30;99.90;;;;;;4994430;28;19956;-71
2022/10/22 08:22:34;;;;;;;;;;;15.30;99.90;;;;;;4988626;28;19916;-71
2022/10/22 08:25:00;;;;;;;;;;;15.30;99.90;;;;;;5001701;28;19917;-71
2022/10/22 08:27:26;;;;;;;;;;;15.30;99.90;;;;;;4998908;28;19910;-70
2022/10/22 08:29:51;;;;;;;;;;;15.40;99.90;;;;;;4995601;28;19917;-70
2022/10/22 08:32:17;;;;;;;;;;;15.40;99.90;;;;;;4990369;28;20369;-71
2022/10/22 08:34:42;;;;;;;;;;;15.50;99.90;;;;;;4999253;28;19916;-71
2022/10/22 08:37:09;;;;;;;;;;;15.60;99.90;;;;;;4992422;28;20000;-71
2022/10/22 08:39:34;;;;;;;;;;;15.80;99.90;;;;;;4989065;28;19925;-69
2022/10/22 08:42:03;;;;;;;;;;;15.90;99.90;;;;;;4989576;28;19910;-72
2022/10/22 08:44:28;;;;;;;;;;;16.10;99.90;;;;;;4998052;28;20101;-70
2022/10/22 08:47:06;;;;;;;;;;;16.30;99.90;;;;;;4996495;28;20438;-70
2022/10/22 08:49:34;;;;;;;;;;;16.40;99.90;;;;;;4997473;28;19910;-70
2022/10/22 08:52:00;;;;;;;;;;;16.70;99.90;;;;;;4991944;28;19963;-71
2022/10/22 08:54:44;;;;;;;;;;;17.00;99.90;;;;;;4997588;28;20000;-71
2022/10/22 08:57:09;;;;;;;;;;;;;;;;;;4992419;28;19932;-70
2022/10/22 08:59:35;;;;;;;;;;;;;;;;;;4998192;28;20430;-70
2022/10/22 09:02:01;;;;;;;;;;;;;;;;;;4992505;28;19933;-69
2022/10/22 09:04:33;;;;;;;;;;;17.00;99.90;;;;;;5001340;28;19972;-70
2022/10/22 09:06:59;;;;;;;;;;;17.10;99.90;;;;;;4997695;28;19918;-70
2022/10/22 09:09:25;;;;;;;;;;;;;;;;;;4994429;28;19910;-69
2022/10/22 09:11:51;;;;;;;;;;;;;;;;;;4997454;28;19988;-70
2022/10/22 09:14:19;;;;;;;;;;;17.00;99.90;;;;;;5003306;28;20000;-69
2022/10/22 09:17:03;;;;;;;;;;;16.80;99.90;;;;;;4999531;28;19932;-69
2022/10/22 09:19:29;;;;;;;;;;;;;;;;;;4998752;28;19910;-69
2022/10/22 09:21:55;;;;;;;;;;;;;;;;;;5001966;28;19910;-69
2022/10/22 09:27:12;;;;;;;;;;;16.80;99.90;;;;;;5001536;28;19916;-66
2022/10/22 09:29:37;;;;;;;;;;;16.80;99.90;;;;;;5000810;28;19910;-67
2022/10/22 09:32:03;;;;;;;;;;;;;;;;;;5003128;28;19953;-67
2022/10/22 09:34:29;;;;;;;;;;;17.10;99.90;;;;;;4991807;28;20285;-68
2022/10/22 09:36:55;;;;;;;;;;;;;;;;;;5007990;28;19993;-70
2022/10/22 09:39:22;;;;;;;;;;;17.10;99.90;;;;;;4991915;28;19914;-70
2022/10/22 09:41:48;;;;;;;;;;;17.00;99.90;;;;;;4995726;28;19956;-69
2022/10/22 09:44:13;;;;;;;;;;;17.00;99.90;;;;;;4998430;28;19963;-71
2022/10/22 09:46:42;;;;;;;;;;;17.00;99.90;;;;;;4988827;28;19978;-71
2022/10/22 09:49:10;;;;;;;;;;;17.00;99.90;;;;;;4992442;28;20285;-71
2022/10/22 09:51:38;;;;;;;;;;;16.90;99.90;;;;;;4992938;28;19910;-70
2022/10/22 09:54:15;;;;;;;;;;;16.90;99.90;;;;;;4998937;28;19948;-70
2022/10/22 09:56:41;;;;;;;;;;;16.90;99.90;;;;;;4986588;28;19921;-71
2022/10/22 09:59:13;;;;;;;;;;;17.00;99.90;;;;;;4997051;28;19913;-71
2022/10/22 10:01:39;;;;;;;;;;;17.10;99.90;;;;;;4984682;28;20332;-71
2022/10/22 10:04:15;;;;;;;;;;;17.20;99.90;;;;;;4992891;28;19914;-70
2022/10/22 10:06:41;;;;;;;;;;;17.30;99.90;;;;;;4990064;28;20271;-69
2022/10/22 10:09:23;;;;;;;;;;;17.30;99.90;;;;;;4993704;28;20020;-70
2022/10/22 10:12:15;;;;;;;;;;;17.40;99.90;;;;;;4990597;28;20557;-70
2022/10/22 10:14:41;;;;;;;;;;;17.40;99.90;;;;;;4987537;28;19920;-72
2022/10/22 10:17:09;;;;;;;;;;;17.60;99.90;;;;;;5002810;28;19909;-70
2022/10/22 10:19:35;;;;;;;;;;;;;;;;;;4999178;28;19922;-70
2022/10/22 10:22:01;;;;;;;;;;;;;;;;;;4992230;28;19910;-71
2022/10/22 10:24:27;;;;;;;;;;;;;;;;;;4994250;28;19924;-70
2022/10/22 10:26:52;;;;;;;;;;;17.70;99.90;;;;;;4993488;28;20276;-71
2022/10/22 10:29:41;;;;;;;;;;;17.80;99.90;;;;;;4998714;28;19909;-70
2022/10/22 10:32:09;;;;;;;;;;;17.80;99.90;;;;;;4988287;28;19949;-71
2022/10/22 10:34:41;;;;;;;;;;;17.80;99.90;;;;;;4998347;28;19909;-71
2022/10/22 10:37:07;;;;;;;;;;;;;;;;;;5000059;28;19971;-71
2022/10/22 10:39:51;;;;;;;;;;;17.70;99.90;;;;;;4998208;28;20338;-71
2022/10/22 10:42:22;;;;;;;;;;;17.80;99.90;;;;;;4991811;28;19910;-71
2022/10/22 10:44:58;;;;;;;;;;;17.90;99.90;;;;;;4982844;28;19918;-71
2022/10/22 10:47:30;;;;;;;;;;;18.10;99.90;;;;;;4989442;28;19909;-72
2022/10/22 10:50:01;;;;;;;;;;;18.30;99.90;;;;;;4994386;28;20265;-71
2022/10/22 10:52:27;;;;;;;;;;;;;;;;;;4995080;28;20375;-71
2022/10/22 10:55:24;;;;;;;;;;;18.60;99.90;;;;;;4990371;28;19914;-70
2022/10/22 10:57:58;;;;;;;;;;;18.80;99.90;;;;;;4971678;28;19910;-69
2022/10/22 11:00:24;;;;;;;;;;;18.80;99.90;;;;;;4998737;28;20372;-72
2022/10/22 11:03:07;;;;;;;;;;;19.10;99.90;;;;;;4995856;28;19910;-69
2022/10/22 11:05:36;;;;;;;;;;;18.90;99.90;;;;;;4991055;28;19917;-71
2022/10/22 11:08:09;;;;;;;;;;;19.30;99.90;;;;;;4999431;28;19956;-71
2022/10/22 11:10:40;;;;;;;;;;;19.40;99.90;;;;;;4998964;28;19909;-70
2022/10/22 11:13:11;;;;;;;;;;;19.40;99.90;;;;;;4994505;28;19917;-70
2022/10/22 11:15:38;;;;;;;;;;;19.10;99.90;;;;;;4991383;28;19917;-70
2022/10/22 11:18:16;;;;;;;;;;;19.20;99.90;;;;;;4990935;28;19953;-69
2022/10/22 11:20:44;;;;;;;;;;;19.60;99.90;;;;;;4992342;28;19917;-71
2022/10/22 11:23:32;;;;;;;;;;;19.90;99.90;;;;;;5002123;28;19913;-70
2022/10/22 11:26:00;;;;;;;;;;;19.80;99.90;;;;;;4997895;28;20537;-70
2022/10/22 11:28:25;;;;;;;;;;;19.50;99.90;;;;;;4996656;28;20288;-70
2022/10/22 11:30:55;;;;;;;;;;;19.80;99.90;;;;;;4991755;28;19909;-71
2022/10/22 11:33:23;;;;;;;;;;;20.10;99.90;;;;;;4995630;28;20290;-69
2022/10/22 11:35:49;;;;;;;;;;;20.40;99.90;;;;;;4990943;28;20009;-71
2022/10/22 11:38:17;;;;;;;;;;;20.70;99.90;;;;;;4994246;28;19913;-69
2022/10/22 11:41:03;;;;;;;;;;;21.00;99.90;;;;;;4990862;28;19913;-70
2022/10/22 11:43:28;;;;;;;;;;;21.00;99.90;;;;;;4981873;28;19918;-71
2022/10/22 11:46:00;;;;;;;;;;;21.00;99.90;;;;;;4988902;28;19955;-69
2022/10/22 11:48:27;;;;;;;;;;;21.10;99.90;;;;;;4986653;28;19917;-69
2022/10/22 11:50:59;;;;;;;;;;;20.60;99.90;;;;;;4994594;28;20334;-69
2022/10/22 11:53:24;;;;;;;;;;;20.30;99.90;;;;;;4992883;28;19913;-68
2022/10/22 11:55:54;;;;;;;;;;;18.80;99.90;;;;;;4988212;28;19910;-68
2022/10/22 11:58:26;;;;;;;;;;;20.50;99.90;;;;;;4984497;28;19910;-70
2022/10/22 12:00:52;;;;;;;;;;;20.80;99.90;;;;;;4994940;28;19932;-69
2022/10/22 12:03:22;;;;;;;;;;;21.20;99.90;;;;;;4990476;28;20353;-70
2022/10/22 12:06:01;;;;;;;;;;;21.80;99.90;;;;;;4985878;28;19929;-69
2022/10/22 12:08:27;;;;;;;;;;;21.90;99.90;;;;;;4983677;28;19910;-70
2022/10/22 12:11:01;;;;;;;;;;;21.10;99.90;;;;;;4993327;28;19905;-68
2022/10/22 12:13:29;;;;;;;;;;;20.40;99.90;;;;;;4992639;28;19910;-69
2022/10/22 12:15:57;;;;;;;;;;;20.40;99.90;;;;;;4988820;28;19909;-68
2022/10/22 12:18:24;;;;;;;;;;;20.10;99.90;;;;;;4991489;28;19909;-70
2022/10/22 12:20:51;;;;;;;;;;;19.90;99.90;;;;;;4990896;28;19916;-69
2022/10/22 12:23:16;;;;;;;;;;;19.40;99.90;;;;;;4989503;28;19960;-68
2022/10/22 12:25:42;;;;;;;;;;;19.30;99.90;;;;;;4994339;28;19933;-65
2022/10/22 12:28:10;;;;;;;;;;;19.50;99.90;;;;;;4991828;28;20352;-68
2022/10/22 12:30:36;;;;;;;;;;;19.40;99.90;;;;;;4990118;28;19913;-68
2022/10/22 12:33:05;;;;;;;;;;;19.80;99.90;;;;;;4987182;28;20274;-68
2022/10/22 12:35:32;;;;;;;;;;;20.20;99.90;;;;;;4990105;28;19925;-69
2022/10/22 12:38:04;;;;;;;;;;;20.10;99.90;;;;;;4989688;28;19944;-69
2022/10/22 12:40:33;;;;;;;;;;;20.10;99.90;;;;;;4996028;28;19910;-71
2022/10/22 12:43:00;;;;;;;;;;;20.10;99.90;;;;;;4996670;28;19954;-68
2022/10/22 12:45:27;;;;;;;;;;;20.10;99.90;;;;;;4985274;28;19918;-69
2022/10/22 12:47:59;;;;;;;;;;;20.40;99.90;;;;;;4996525;28;19910;-69
2022/10/22 12:50:51;;;;;;;;;;;20.40;99.90;;;;;;4996892;28;19916;-69
2022/10/22 12:53:19;;;;;;;;;;;20.30;99.90;;;;;;5002217;28;19913;-69
2022/10/22 12:55:46;;;;;;;;;;;19.90;99.90;;;;;;4997026;28;20016;-68
2022/10/22 12:58:15;;;;;;;;;;;19.40;99.90;;;;;;4993776;28;19921;-70
2022/10/22 13:00:40;;;;;;;;;;;19.20;99.90;;;;;;4996119;28;19924;-69
2022/10/22 13:03:06;;;;;;;;;;;19.20;99.90;;;;;;5003760;28;20281;-68
2022/10/22 13:05:37;;;;;;;;;;;19.30;99.90;;;;;;4996291;28;19918;-67
2022/10/22 13:08:10;;;;;;;;;;;19.50;99.90;;;;;;4993041;28;19918;-69
2022/10/22 13:10:37;;;;;;;;;;;19.70;99.90;;;;;;4996013;28;20270;-67
2022/10/22 13:13:05;;;;;;;;;;;19.60;99.90;;;;;;5000734;28;19932;-68
2022/10/22 13:15:34;;;;;;;;;;;19.60;99.90;;;;;;4991710;28;19909;-68
2022/10/22 13:18:14;;;;;;;;;;;20.50;99.90;;;;;;5005084;28;19933;-69
2022/10/22 13:20:50;;;;;;;;;;;20.90;99.90;;;;;;4986753;28;20324;-68
2022/10/22 13:23:17;;;;;;;;;;;21.60;99.90;;;;;;4992068;28;19932;-68
2022/10/22 13:25:42;;;;;;;;;;;21.50;99.90;;;;;;4997530;28;20410;-68
2022/10/22 13:28:11;;;;;;;;;;;21.40;99.90;;;;;;4995343;28;19910;-68
2022/10/22 13:30:37;;;;;;;;;;;21.00;99.90;;;;;;4985176;28;20289;-67
2022/10/22 13:33:03;;;;;;;;;;;;;;;;;;4994361;28;20413;-69
2022/10/22 13:35:30;;;;;;;;;;;;;;;;;;4996880;28;20001;-69
2022/10/22 13:37:56;;;;;;;;;;;;;;;;;;4999685;28;19913;-69
2022/10/22 13:40:22;;;;;;;;;;;21.70;99.90;;;;;;5000009;28;19916;-69
2022/10/22 13:42:47;;;;;;;;;;;21.70;99.90;;;;;;4997255;28;20423;-70
2022/10/22 13:45:13;;;;;;;;;;;;;;;;;;4989621;28;19918;-69
2022/10/22 13:47:39;;;;;;;;;;;;;;;;;;4989399;28;20004;-67
2022/10/22 13:50:15;;;;;;;;;;;19.50;99.90;;;;;;4988311;28;19910;-67
2022/10/22 13:55:44;;;;;;;;;;;19.10;99.90;;;;;;4983103;28;20293;-65
2022/10/22 13:58:10;;;;;;;;;;;18.90;99.90;;;;;;4984353;28;19909;-67
2022/10/22 14:00:37;;;;;;;;;;;18.90;99.90;;;;;;4991367;28;19924;-67
2022/10/22 14:03:03;;;;;;;;;;;18.80;99.90;;;;;;4991174;28;20301;-68
2022/10/22 14:05:31;;;;;;;;;;;18.80;99.90;;;;;;4990234;28;19929;-69
2022/10/22 14:08:00;;;;;;;;;;;18.40;99.90;;;;;;4995451;28;19997;-67
2022/10/22 14:10:26;;;;;;;;;;;;;;;;;;4991933;28;20345;-69
2022/10/22 14:12:52;;;;;;;;;;;;;;;;;;4997125;28;19964;-69
2022/10/22 14:15:18;;;;;;;;;;;18.50;99.90;;;;;;5016032;28;19910;-69
2022/10/22 14:17:45;;;;;;;;;;;18.40;99.90;;;;;;4998811;28;19964;-67
2022/10/22 14:20:11;;;;;;;;;;;;;;;;;;5001404;28;20021;-68
2022/10/22 14:22:36;;;;;;;;;;;;;;;;;;4994383;28;20005;-68
2022/10/22 14:25:02;;;;;;;;;;;;;;;;;;4990800;28;20373;-68
2022/10/22 14:27:28;;;;;;;;;;;18.00;99.90;;;;;;4994601;28;19964;-67
2022/10/22 14:29:54;;;;;;;;;;;;;;;;;;5004391;28;19913;-70
2022/10/22 14:32:19;;;;;;;;;;;17.70;99.90;;;;;;5002314;28;19910;-68
2022/10/22 14:34:45;;;;;;;;;;;17.80;99.90;;;;;;4994724;28;20019;-67
2022/10/22 14:37:13;;;;;;;;;;;18.00;99.90;;;;;;4996591;28;20000;-67
2022/10/22 14:39:39;;;;;;;;;;;18.10;99.90;;;;;;4990681;28;19910;-68